sensor_id;sensor_type;location;lat;lon;timestamp;pressure;altitude;pressure_sealevel;temperature;humidity
19208;BME280;9737;59.466;18.036;2023-01-28T00:01:56;95152.03;;;-2.98;83.24
19208;BME280;9737;59.466;18.036;2023-01-28T00:04:25;95145.22;;;-2.99;82.90
19208;BME280;9737;59.466;18.036;2023-01-28T00:06:53;95171.22;;;-2.91;82.97
19208;BME280;9737;59.466;18.036;2023-01-28T00:09:21;95226.19;;;-2.77;83.29
19208;BME280;9737;59.466;18.036;2023-01-28T00:11:49;95224.88;;;-2.82;82.98
19208;BME280;9737;59.466;18.036;2023-01-28T00:14:17;95232.03;;;-2.75;83.00
19208;BME280;9737;59.466;18.036;2023-01-28T00:16:45;95239.69;;;-2.74;83.04
19208;BME280;9737;59.466;18.036;2023-01-28T00:19:13;95267.50;;;-2.66;83.06
19208;BME280;9737;59.466;18.036;2023-01-28T00:21:42;95259.03;;;-2.68;83.32
19208;BME280;9737;59.466;18.036;2023-01-28T00:24:10;95254.16;;;-2.71;83.23
19208;BME280;9737;59.466;18.036;2023-01-28T00:26:38;95273.66;;;-2.67;83.38
19208;BME280;9737;59.466;18.036;2023-01-28T00:29:06;95258.22;;;-2.69;83.29
19208;BME280;9737;59.466;18.036;2023-01-28T00:31:34;95244.72;;;-2.72;83.21
19208;BME280;9737;59.466;18.036;2023-01-28T00:34:03;95247.16;;;-2.71;82.95
19208;BME280;9737;59.466;18.036;2023-01-28T00:36:31;95240.81;;;-2.76;83.29
19208;BME280;9737;59.466;18.036;2023-01-28T00:39:02;95243.09;;;-2.73;82.92
19208;BME280;9737;59.466;18.036;2023-01-28T00:41:30;95215.47;;;-2.83;82.95
19208;BME280;9737;59.466;18.036;2023-01-28T00:43:58;95214.47;;;-2.82;83.15
19208;BME280;9737;59.466;18.036;2023-01-28T00:46:26;95225.22;;;-2.76;83.24
19208;BME280;9737;59.466;18.036;2023-01-28T00:48:54;95225.84;;;-2.83;83.13
19208;BME280;9737;59.466;18.036;2023-01-28T00:51:28;95214.44;;;-2.90;83.00
19208;BME280;9737;59.466;18.036;2023-01-28T00:53:56;95265.22;;;-2.69;83.01
19208;BME280;9737;59.466;18.036;2023-01-28T00:56:26;95281.00;;;-2.63;83.30
19208;BME280;9737;59.466;18.036;2023-01-28T00:58:54;95279.22;;;-2.62;83.27
19208;BME280;9737;59.466;18.036;2023-01-28T01:01:24;95288.63;;;-2.61;82.98
19208;BME280;9737;59.466;18.036;2023-01-28T01:03:53;95292.84;;;-2.68;83.31
19208;BME280;9737;59.466;18.036;2023-01-28T01:06:29;95330.00;;;-2.50;83.20
19208;BME280;9737;59.466;18.036;2023-01-28T01:08:57;95335.69;;;-2.46;83.16
19208;BME280;9737;59.466;18.036;2023-01-28T01:11:27;95330.81;;;-2.50;83.31
19208;BME280;9737;59.466;18.036;2023-01-28T01:13:56;95343.34;;;-2.45;83.28
19208;BME280;9737;59.466;18.036;2023-01-28T01:16:26;95349.34;;;-2.44;83.38
19208;BME280;9737;59.466;18.036;2023-01-28T01:18:55;95301.94;;;-2.64;83.18
19208;BME280;9737;59.466;18.036;2023-01-28T01:21:27;95326.41;;;-2.49;83.10
19208;BME280;9737;59.466;18.036;2023-01-28T01:23:56;95313.38;;;-2.57;83.31
19208;BME280;9737;59.466;18.036;2023-01-28T01:26:24;95286.03;;;-2.61;83.24
19208;BME280;9737;59.466;18.036;2023-01-28T01:28:54;95263.94;;;-2.65;83.02
19208;BME280;9737;59.466;18.036;2023-01-28T01:31:22;95290.94;;;-2.58;83.27
19208;BME280;9737;59.466;18.036;2023-01-28T01:33:50;95302.00;;;-2.56;83.19
19208;BME280;9737;59.466;18.036;2023-01-28T01:36:19;95324.13;;;-2.52;83.05
19208;BME280;9737;59.466;18.036;2023-01-28T01:38:51;95318.09;;;-2.53;83.19
19208;BME280;9737;59.466;18.036;2023-01-28T01:41:26;95337.78;;;-2.50;83.29
19208;BME280;9737;59.466;18.036;2023-01-28T01:43:57;95348.38;;;-2.43;83.35
19208;BME280;9737;59.466;18.036;2023-01-28T01:46:33;95343.50;;;-2.46;83.13
19208;BME280;9737;59.466;18.036;2023-01-28T01:49:10;95384.00;;;-2.36;83.35
19208;BME280;9737;59.466;18.036;2023-01-28T01:51:41;95371.81;;;-2.35;83.16
19208;BME280;9737;59.466;18.036;2023-01-28T01:54:11;95387.25;;;-2.34;83.33
19208;BME280;9737;59.466;18.036;2023-01-28T01:56:43;95391.66;;;-2.34;83.55
19208;BME280;9737;59.466;18.036;2023-01-28T01:59:19;95405.03;;;-2.29;83.35
19208;BME280;9737;59.466;18.036;2023-01-28T02:01:48;95423.59;;;-2.24;83.42
19208;BME280;9737;59.466;18.036;2023-01-28T02:04:18;95388.25;;;-2.35;83.57
19208;BME280;9737;59.466;18.036;2023-01-28T02:06:49;95384.00;;;-2.36;83.43
19208;BME280;9737;59.466;18.036;2023-01-28T02:09:22;95371.16;;;-2.37;83.38
19208;BME280;9737;59.466;18.036;2023-01-28T02:11:52;95360.25;;;-2.41;83.08
19208;BME280;9737;59.466;18.036;2023-01-28T02:14:25;95383.34;;;-2.38;83.42
19208;BME280;9737;59.466;18.036;2023-01-28T02:16:59;95379.78;;;-2.37;83.50
19208;BME280;9737;59.466;18.036;2023-01-28T02:19:31;95378.81;;;-2.36;83.38
19208;BME280;9737;59.466;18.036;2023-01-28T02:22:18;95367.09;;;-2.40;83.46
19208;BME280;9737;59.466;18.036;2023-01-28T02:25:23;95332.44;;;-2.48;83.29
19208;BME280;9737;59.466;18.036;2023-01-28T02:30:34;95348.53;;;-2.45;83.33
19208;BME280;9737;59.466;18.036;2023-01-28T02:33:05;95359.44;;;-2.41;83.34
19208;BME280;9737;59.466;18.036;2023-01-28T02:35:40;95353.41;;;-2.42;83.35
19208;BME280;9737;59.466;18.036;2023-01-28T02:38:13;95368.72;;;-2.39;83.46
19208;BME280;9737;59.466;18.036;2023-01-28T02:40:47;95373.09;;;-2.39;83.33
19208;BME280;9737;59.466;18.036;2023-01-28T02:43:31;95327.06;;;-2.47;83.31
19208;BME280;9737;59.466;18.036;2023-01-28T02:46:10;95360.25;;;-2.41;83.05
19208;BME280;9737;59.466;18.036;2023-01-28T02:48:57;95344.31;;;-2.46;83.23
19208;BME280;9737;59.466;18.036;2023-01-28T02:51:34;95377.19;;;-2.37;83.06
19208;BME280;9737;59.466;18.036;2023-01-28T02:54:09;95389.22;;;-2.36;83.38
19208;BME280;9737;59.466;18.036;2023-01-28T02:56:44;95401.78;;;-2.31;83.22
19208;BME280;9737;59.466;18.036;2023-01-28T02:59:21;95434.50;;;-2.21;83.31
19208;BME280;9737;59.466;18.036;2023-01-28T03:02:08;95498.97;;;-2.06;83.46
19208;BME280;9737;59.466;18.036;2023-01-28T03:04:43;95514.00;;;-2.00;83.18
19208;BME280;9737;59.466;18.036;2023-01-28T03:07:15;95520.00;;;-2.00;83.20
19208;BME280;9737;59.466;18.036;2023-01-28T03:09:45;95509.06;;;-2.03;83.07
19208;BME280;9737;59.466;18.036;2023-01-28T03:12:17;95507.44;;;-2.04;83.11
19208;BME280;9737;59.466;18.036;2023-01-28T03:15:07;95515.63;;;-1.99;83.38
19208;BME280;9737;59.466;18.036;2023-01-28T03:18:00;95529.31;;;-1.97;83.17
19208;BME280;9737;59.466;18.036;2023-01-28T03:20:50;95540.06;;;-1.92;83.25
19208;BME280;9737;59.466;18.036;2023-01-28T03:23:46;95561.25;;;-1.87;83.17
19208;BME280;9737;59.466;18.036;2023-01-28T03:26:34;95567.75;;;-1.83;83.48
19208;BME280;9737;59.466;18.036;2023-01-28T03:29:22;95612.88;;;-1.74;83.57
19208;BME280;9737;59.466;18.036;2023-01-28T03:32:11;95622.22;;;-1.72;83.22
19208;BME280;9737;59.466;18.036;2023-01-28T03:34:59;95623.84;;;-1.71;83.17
19208;BME280;9737;59.466;18.036;2023-01-28T03:37:44;95632.63;;;-1.72;83.24
19208;BME280;9737;59.466;18.036;2023-01-28T03:40:13;95664.56;;;-1.62;83.45
19208;BME280;9737;59.466;18.036;2023-01-28T03:42:40;95683.16;;;-1.57;83.16
19208;BME280;9737;59.466;18.036;2023-01-28T03:45:09;95697.53;;;-1.52;83.20
19208;BME280;9737;59.466;18.036;2023-01-28T03:47:38;95691.66;;;-1.54;83.47
19208;BME280;9737;59.466;18.036;2023-01-28T03:50:09;95731.47;;;-1.44;83.25
19208;BME280;9737;59.466;18.036;2023-01-28T03:52:37;95738.97;;;-1.41;83.19
19208;BME280;9737;59.466;18.036;2023-01-28T03:55:05;95754.59;;;-1.41;83.37
19208;BME280;9737;59.466;18.036;2023-01-28T03:57:40;95757.22;;;-1.41;83.37
19208;BME280;9737;59.466;18.036;2023-01-28T04:00:11;95809.44;;;-1.25;83.53
19208;BME280;9737;59.466;18.036;2023-01-28T04:02:39;95841.44;;;-1.15;83.64
19208;BME280;9737;59.466;18.036;2023-01-28T04:05:09;95839.66;;;-1.14;83.54
19208;BME280;9737;59.466;18.036;2023-01-28T04:07:41;95874.56;;;-1.07;83.58
19208;BME280;9737;59.466;18.036;2023-01-28T04:10:09;95873.69;;;-1.16;83.24
19208;BME280;9737;59.466;18.036;2023-01-28T04:12:37;95911.66;;;-0.96;83.36
19208;BME280;9737;59.466;18.036;2023-01-28T04:15:07;95915.91;;;-0.95;83.66
19208;BME280;9737;59.466;18.036;2023-01-28T04:17:45;95899.97;;;-1.09;83.60
19208;BME280;9737;59.466;18.036;2023-01-28T04:20:15;95942.34;;;-0.89;83.28
19208;BME280;9737;59.466;18.036;2023-01-28T04:22:43;95951.53;;;-0.85;83.56
19208;BME280;9737;59.466;18.036;2023-01-28T04:25:11;95990.41;;;-0.74;83.43
19208;BME280;9737;59.466;18.036;2023-01-28T04:27:39;96011.63;;;-0.69;83.24
19208;BME280;9737;59.466;18.036;2023-01-28T04:30:08;96049.72;;;-0.58;83.62
19208;BME280;9737;59.466;18.036;2023-01-28T04:32:36;96072.78;;;-0.54;83.41
19208;BME280;9737;59.466;18.036;2023-01-28T04:35:05;96104.16;;;-0.46;83.19
19208;BME280;9737;59.466;18.036;2023-01-28T04:37:34;96107.44;;;-0.44;83.37
19208;BME280;9737;59.466;18.036;2023-01-28T04:40:03;96126.06;;;-0.39;83.37
19208;BME280;9737;59.466;18.036;2023-01-28T04:42:31;96161.84;;;-0.31;83.33
19208;BME280;9737;59.466;18.036;2023-01-28T04:44:59;96176.28;;;-0.27;83.69
19208;BME280;9737;59.466;18.036;2023-01-28T04:47:27;96195.06;;;-0.23;83.62
19208;BME280;9737;59.466;18.036;2023-01-28T04:49:54;96223.88;;;-0.15;83.53
19208;BME280;9737;59.466;18.036;2023-01-28T04:52:22;96222.16;;;-0.24;83.61
19208;BME280;9737;59.466;18.036;2023-01-28T04:54:52;96223.13;;;-0.25;83.23
19208;BME280;9737;59.466;18.036;2023-01-28T04:57:20;96268.03;;;-0.04;83.55
19208;BME280;9737;59.466;18.036;2023-01-28T04:59:47;96272.28;;;-0.03;83.33
19208;BME280;9737;59.466;18.036;2023-01-28T05:02:15;96268.72;;;-0.02;83.64
19208;BME280;9737;59.466;18.036;2023-01-28T05:04:43;96284.13;;;0.01;83.68
19208;BME280;9737;59.466;18.036;2023-01-28T05:07:11;96288.09;;;-0.05;83.62
19208;BME280;9737;59.466;18.036;2023-01-28T05:09:39;96316.34;;;0.10;83.42
19208;BME280;9737;59.466;18.036;2023-01-28T05:12:08;96329.13;;;0.13;83.57
19208;BME280;9737;59.466;18.036;2023-01-28T05:14:36;96312.84;;;0.01;83.21
19208;BME280;9737;59.466;18.036;2023-01-28T05:17:04;96333.53;;;0.12;83.37
19208;BME280;9737;59.466;18.036;2023-01-28T05:19:32;96344.34;;;0.17;83.09
19208;BME280;9737;59.466;18.036;2023-01-28T05:22:00;96347.78;;;0.18;83.42
19208;BME280;9737;59.466;18.036;2023-01-28T05:24:28;96370.69;;;0.24;83.53
19208;BME280;9737;59.466;18.036;2023-01-28T05:26:56;96392.28;;;0.26;83.00
19208;BME280;9737;59.466;18.036;2023-01-28T05:29:25;96406.56;;;0.32;83.23
19208;BME280;9737;59.466;18.036;2023-01-28T05:31:53;96423.44;;;0.37;83.17
19208;BME280;9737;59.466;18.036;2023-01-28T05:34:21;96431.16;;;0.39;83.35
19208;BME280;9737;59.466;18.036;2023-01-28T05:36:48;96423.59;;;0.36;83.59
19208;BME280;9737;59.466;18.036;2023-01-28T05:39:16;96443.25;;;0.40;83.57
19208;BME280;9737;59.466;18.036;2023-01-28T05:41:45;96458.34;;;0.46;83.14
19208;BME280;9737;59.466;18.036;2023-01-28T05:44:13;96458.34;;;0.46;83.54
19208;BME280;9737;59.466;18.036;2023-01-28T05:46:42;96482.91;;;0.53;83.63
19208;BME280;9737;59.466;18.036;2023-01-28T05:49:12;96488.16;;;0.53;83.46
19208;BME280;9737;59.466;18.036;2023-01-28T05:51:40;96469.31;;;0.49;83.46
19208;BME280;9737;59.466;18.036;2023-01-28T05:54:08;96463.84;;;0.43;83.75
19208;BME280;9737;59.466;18.036;2023-01-28T05:56:36;96488.97;;;0.53;83.58
19208;BME280;9737;59.466;18.036;2023-01-28T05:59:06;96482.25;;;0.51;83.41
19208;BME280;9737;59.466;18.036;2023-01-28T06:01:35;96475.38;;;0.50;83.06
19208;BME280;9737;59.466;18.036;2023-01-28T06:04:05;96468.63;;;0.47;83.30
19208;BME280;9737;59.466;18.036;2023-01-28T06:06:33;96477.00;;;0.51;83.25
19208;BME280;9737;59.466;18.036;2023-01-28T06:09:01;96469.47;;;0.48;83.00
19208;BME280;9737;59.466;18.036;2023-01-28T06:11:29;96458.34;;;0.46;82.97
19208;BME280;9737;59.466;18.036;2023-01-28T06:13:57;96463.56;;;0.46;83.68
19208;BME280;9737;59.466;18.036;2023-01-28T06:16:24;96459.69;;;0.50;83.38
19208;BME280;9737;59.466;18.036;2023-01-28T06:18:52;96456.69;;;0.45;83.57
19208;BME280;9737;59.466;18.036;2023-01-28T06:21:21;96457.50;;;0.45;83.10
19208;BME280;9737;59.466;18.036;2023-01-28T06:23:49;96436.38;;;0.39;83.37
19208;BME280;9737;59.466;18.036;2023-01-28T06:26:17;96455.72;;;0.46;83.39
19208;BME280;9737;59.466;18.036;2023-01-28T06:28:45;96471.09;;;0.49;83.73
19208;BME280;9737;59.466;18.036;2023-01-28T06:31:13;96463.03;;;0.42;83.44
19208;BME280;9737;59.466;18.036;2023-01-28T06:33:41;96456.53;;;0.46;83.06
19208;BME280;9737;59.466;18.036;2023-01-28T06:36:09;96449.00;;;0.43;83.35
19208;BME280;9737;59.466;18.036;2023-01-28T06:38:38;96453.94;;;0.46;83.42
19208;BME280;9737;59.466;18.036;2023-01-28T06:41:06;96458.34;;;0.46;83.54
19208;BME280;9737;59.466;18.036;2023-01-28T06:43:34;96436.22;;;0.40;83.41
19208;BME280;9737;59.466;18.036;2023-01-28T06:46:02;96437.72;;;0.43;83.44
19208;BME280;9737;59.466;18.036;2023-01-28T06:48:30;96428.53;;;0.39;83.29
19208;BME280;9737;59.466;18.036;2023-01-28T06:50:58;96446.53;;;0.42;83.49
19208;BME280;9737;59.466;18.036;2023-01-28T06:53:26;96439.66;;;0.41;83.14
19208;BME280;9737;59.466;18.036;2023-01-28T06:55:55;96449.28;;;0.40;83.11
19208;BME280;9737;59.466;18.036;2023-01-28T06:58:23;96421.81;;;0.36;83.70
19208;BME280;9737;59.466;18.036;2023-01-28T07:00:52;96438.03;;;0.40;83.44
19208;BME280;9737;59.466;18.036;2023-01-28T07:03:20;96412.47;;;0.34;83.15
19208;BME280;9737;59.466;18.036;2023-01-28T07:05:48;96416.72;;;0.35;83.36
19208;BME280;9737;59.466;18.036;2023-01-28T07:08:16;96423.44;;;0.37;83.33
19208;BME280;9737;59.466;18.036;2023-01-28T07:10:44;96430.31;;;0.38;83.24
19208;BME280;9737;59.466;18.036;2023-01-28T07:13:13;96402.84;;;0.34;83.12
19208;BME280;9737;59.466;18.036;2023-01-28T07:15:41;96426.22;;;0.36;83.38
19208;BME280;9737;59.466;18.036;2023-01-28T07:18:09;96425.25;;;0.37;83.39
19208;BME280;9737;59.466;18.036;2023-01-28T07:20:37;96429.50;;;0.38;83.27
19208;BME280;9737;59.466;18.036;2023-01-28T07:23:04;96436.38;;;0.39;83.19
19208;BME280;9737;59.466;18.036;2023-01-28T07:25:32;96418.00;;;0.30;83.16
19208;BME280;9737;59.466;18.036;2023-01-28T07:28:00;96423.59;;;0.36;82.95
19208;BME280;9737;59.466;18.036;2023-01-28T07:30:29;96452.59;;;0.42;83.38
19208;BME280;9737;59.466;18.036;2023-01-28T07:32:58;96456.69;;;0.45;83.40
19208;BME280;9737;59.466;18.036;2023-01-28T07:35:26;96448.19;;;0.43;83.43
19208;BME280;9737;59.466;18.036;2023-01-28T07:37:57;96431.97;;;0.39;83.20
19208;BME280;9737;59.466;18.036;2023-01-28T07:40:26;96439.66;;;0.41;83.15
19208;BME280;9737;59.466;18.036;2023-01-28T07:42:55;96433.75;;;0.39;83.38
19208;BME280;9737;59.466;18.036;2023-01-28T07:45:24;96410.81;;;0.33;83.64
19208;BME280;9737;59.466;18.036;2023-01-28T07:47:54;96446.53;;;0.42;83.12
19208;BME280;9737;59.466;18.036;2023-01-28T07:50:22;96445.84;;;0.40;83.23
19208;BME280;9737;59.466;18.036;2023-01-28T07:52:50;96439.66;;;0.41;83.24
19208;BME280;9737;59.466;18.036;2023-01-28T07:55:18;96481.41;;;0.50;83.06
19208;BME280;9737;59.466;18.036;2023-01-28T07:57:50;96499.13;;;0.56;83.54
19208;BME280;9737;59.466;18.036;2023-01-28T08:00:19;96493.91;;;0.56;83.37
19208;BME280;9737;59.466;18.036;2023-01-28T08:02:48;96498.31;;;0.56;82.91
19208;BME280;9737;59.466;18.036;2023-01-28T08:05:19;96505.31;;;0.55;83.44
19208;BME280;9737;59.466;18.036;2023-01-28T08:07:48;96500.91;;;0.56;82.88
19208;BME280;9737;59.466;18.036;2023-01-28T08:10:17;96511.94;;;0.59;82.95
19208;BME280;9737;59.466;18.036;2023-01-28T08:12:52;96531.75;;;0.62;83.06
19208;BME280;9737;59.466;18.036;2023-01-28T08:15:21;96526.50;;;0.62;83.09
19208;BME280;9737;59.466;18.036;2023-01-28T08:17:49;96505.06;;;0.58;83.05
19208;BME280;9737;59.466;18.036;2023-01-28T08:20:18;96505.31;;;0.55;83.14
19208;BME280;9737;59.466;18.036;2023-01-28T08:22:46;96536.53;;;0.67;83.21
19208;BME280;9737;59.466;18.036;2023-01-28T08:25:14;96546.69;;;0.70;83.52
19208;BME280;9737;59.466;18.036;2023-01-28T08:27:42;96558.66;;;0.72;83.17
19208;BME280;9737;59.466;18.036;2023-01-28T08:30:10;96561.25;;;0.72;83.27
19208;BME280;9737;59.466;18.036;2023-01-28T08:32:39;96562.22;;;0.71;83.08
19208;BME280;9737;59.466;18.036;2023-01-28T08:35:07;96558.78;;;0.71;83.07
19208;BME280;9737;59.466;18.036;2023-01-28T08:37:36;96552.59;;;0.72;83.00
19208;BME280;9737;59.466;18.036;2023-01-28T08:40:05;96539.13;;;0.67;83.23
19208;BME280;9737;59.466;18.036;2023-01-28T08:42:34;96574.88;;;0.76;83.41
19208;BME280;9737;59.466;18.036;2023-01-28T08:45:02;96568.00;;;0.75;83.01
19208;BME280;9737;59.466;18.036;2023-01-28T08:47:29;96596.03;;;0.82;83.18
19208;BME280;9737;59.466;18.036;2023-01-28T08:49:57;96609.78;;;0.84;83.42
19208;BME280;9737;59.466;18.036;2023-01-28T08:52:25;96613.94;;;0.87;83.16
19208;BME280;9737;59.466;18.036;2023-01-28T08:54:54;96608.13;;;0.83;83.04
19208;BME280;9737;59.466;18.036;2023-01-28T08:57:23;96616.66;;;0.85;83.04
19208;BME280;9737;59.466;18.036;2023-01-28T08:59:50;96634.56;;;0.90;82.96
19208;BME280;9737;59.466;18.036;2023-01-28T09:02:18;96656.56;;;0.97;83.22
19208;BME280;9737;59.466;18.036;2023-01-28T09:04:56;96689.00;;;1.04;83.03
19208;BME280;9737;59.466;18.036;2023-01-28T09:07:24;96708.53;;;1.10;83.26
19208;BME280;9737;59.466;18.036;2023-01-28T09:09:52;96740.06;;;1.18;83.37
19208;BME280;9737;59.466;18.036;2023-01-28T09:12:21;96752.88;;;1.21;83.17
19208;BME280;9737;59.466;18.036;2023-01-28T09:14:49;96754.53;;;1.22;83.21
19208;BME280;9737;59.466;18.036;2023-01-28T09:17:18;96770.91;;;1.24;83.26
19208;BME280;9737;59.466;18.036;2023-01-28T09:19:46;96750.94;;;1.13;83.04
19208;BME280;9737;59.466;18.036;2023-01-28T09:22:13;96777.78;;;1.25;82.92
19208;BME280;9737;59.466;18.036;2023-01-28T09:24:41;96750.94;;;1.23;83.32
19208;BME280;9737;59.466;18.036;2023-01-28T09:27:09;96745.16;;;1.19;83.03
19208;BME280;9737;59.466;18.036;2023-01-28T09:29:40;96733.19;;;1.17;83.36
19208;BME280;9737;59.466;18.036;2023-01-28T09:32:08;96725.59;;;1.14;83.16
19208;BME280;9737;59.466;18.036;2023-01-28T09:34:36;96753.56;;;1.23;83.20
19208;BME280;9737;59.466;18.036;2023-01-28T09:37:04;96780.41;;;1.25;83.09
19208;BME280;9737;59.466;18.036;2023-01-28T09:39:32;96832.81;;;1.43;83.20
19208;BME280;9737;59.466;18.036;2023-01-28T09:42:11;96834.63;;;1.42;83.31
19208;BME280;9737;59.466;18.036;2023-01-28T09:44:55;96815.22;;;1.35;83.18
19208;BME280;9737;59.466;18.036;2023-01-28T09:47:30;96828.69;;;1.40;82.92
19208;BME280;9737;59.466;18.036;2023-01-28T09:50:01;96832.97;;;1.41;83.26
19208;BME280;9737;59.466;18.036;2023-01-28T09:52:33;96882.28;;;1.55;83.40
19208;BME280;9737;59.466;18.036;2023-01-28T09:55:04;96886.69;;;1.55;83.22
19208;BME280;9737;59.466;18.036;2023-01-28T09:57:38;96920.31;;;1.60;83.20
19208;BME280;9737;59.466;18.036;2023-01-28T10:00:13;96955.81;;;1.72;83.14
19208;BME280;9737;59.466;18.036;2023-01-28T10:02:54;96999.38;;;1.82;83.29
19208;BME280;9737;59.466;18.036;2023-01-28T10:05:30;96977.06;;;1.69;82.98
19208;BME280;9737;59.466;18.036;2023-01-28T10:08:10;96999.00;;;1.68;83.08
19208;BME280;9737;59.466;18.036;2023-01-28T10:10:45;97088.03;;;2.06;83.30
19208;BME280;9737;59.466;18.036;2023-01-28T10:13:23;97128.16;;;2.16;83.26
19208;BME280;9737;59.466;18.036;2023-01-28T10:16:20;97141.53;;;2.23;83.24
19208;BME280;9737;59.466;18.036;2023-01-28T10:18:54;97199.91;;;2.35;83.12
19208;BME280;9737;59.466;18.036;2023-01-28T10:21:27;97190.78;;;2.29;83.23
19208;BME280;9737;59.466;18.036;2023-01-28T10:24:00;97210.13;;;2.38;83.15
19208;BME280;9737;59.466;18.036;2023-01-28T10:26:33;97204.88;;;2.38;83.43
19208;BME280;9737;59.466;18.036;2023-01-28T10:29:08;97221.00;;;2.43;83.04
19208;BME280;9737;59.466;18.036;2023-01-28T10:31:45;97280.22;;;2.55;82.99
19208;BME280;9737;59.466;18.036;2023-01-28T10:34:14;97292.34;;;2.56;83.01
19208;BME280;9737;59.466;18.036;2023-01-28T10:36:45;97200.59;;;2.37;83.33
19208;BME280;9737;59.466;18.036;2023-01-28T10:39:14;97238.41;;;2.44;83.16
19208;BME280;9737;59.466;18.036;2023-01-28T10:41:43;97316.81;;;2.66;82.95
19208;BME280;9737;59.466;18.036;2023-01-28T10:44:30;97409.22;;;2.89;83.34
19208;BME280;9737;59.466;18.036;2023-01-28T10:47:02;97857.41;;;3.99;83.17
19208;BME280;9737;59.466;18.036;2023-01-28T10:49:36;98380.75;;;5.39;83.46
19208;BME280;9737;59.466;18.036;2023-01-28T10:52:11;98919.75;;;6.69;82.81
19208;BME280;9737;59.466;18.036;2023-01-28T10:54:39;99285.88;;;7.62;83.07
19208;BME280;9737;59.466;18.036;2023-01-28T10:57:11;99636.69;;;8.48;82.97
19208;BME280;9737;59.466;18.036;2023-01-28T10:59:40;99794.59;;;8.85;83.17
19208;BME280;9737;59.466;18.036;2023-01-28T11:02:25;99978.72;;;9.29;83.14
19208;BME280;9737;59.466;18.036;2023-01-28T11:05:00;100087.28;;;9.56;83.31
19208;BME280;9737;59.466;18.036;2023-01-28T11:07:30;99984.75;;;9.31;83.27
19208;BME280;9737;59.466;18.036;2023-01-28T11:09:57;99684.38;;;8.48;83.54
19208;BME280;9737;59.466;18.036;2023-01-28T11:12:27;99784.47;;;8.79;83.57
19208;BME280;9737;59.466;18.036;2023-01-28T11:14:57;99915.81;;;9.07;83.55
19208;BME280;9737;59.466;18.036;2023-01-28T11:17:28;99652.59;;;8.48;82.92
19208;BME280;9737;59.466;18.036;2023-01-28T11:20:00;99391.03;;;7.83;83.75
19208;BME280;9737;59.466;18.036;2023-01-28T11:22:37;98955.28;;;6.76;83.13
19208;BME280;9737;59.466;18.036;2023-01-28T11:25:16;98616.41;;;5.90;82.89
19208;BME280;9737;59.466;18.036;2023-01-28T11:27:46;98468.16;;;5.55;83.56
19208;BME280;9737;59.466;18.036;2023-01-28T11:30:20;98300.44;;;5.12;83.29
19208;BME280;9737;59.466;18.036;2023-01-28T11:32:55;98225.00;;;4.90;83.44
19208;BME280;9737;59.466;18.036;2023-01-28T11:35:27;98491.63;;;5.58;83.57
19208;BME280;9737;59.466;18.036;2023-01-28T11:37:57;98871.50;;;6.56;83.02
19208;BME280;9737;59.466;18.036;2023-01-28T11:40:26;98985.63;;;6.81;83.11
19208;BME280;9737;59.466;18.036;2023-01-28T11:42:55;99019.13;;;6.92;83.26
19208;BME280;9737;59.466;18.036;2023-01-28T11:45:31;98952.63;;;6.76;83.07
19208;BME280;9737;59.466;18.036;2023-01-28T11:48:11;98711.34;;;6.13;83.16
19208;BME280;9737;59.466;18.036;2023-01-28T11:50:45;98554.34;;;5.75;83.43
19208;BME280;9737;59.466;18.036;2023-01-28T11:53:40;98407.25;;;5.37;83.08
19208;BME280;9737;59.466;18.036;2023-01-28T11:56:23;98291.81;;;5.10;83.09
19208;BME280;9737;59.466;18.036;2023-01-28T11:58:59;98241.28;;;4.95;82.85
19208;BME280;9737;59.466;18.036;2023-01-28T12:01:39;98137.19;;;4.71;82.66
19208;BME280;9737;59.466;18.036;2023-01-28T12:04:19;98002.38;;;4.37;82.88
19208;BME280;9737;59.466;18.036;2023-01-28T12:07:04;98004.19;;;4.36;82.95
19208;BME280;9737;59.466;18.036;2023-01-28T12:09:48;97968.81;;;4.29;83.25
19208;BME280;9737;59.466;18.036;2023-01-28T12:12:48;97967.16;;;4.28;82.72
19208;BME280;9737;59.466;18.036;2023-01-28T12:15:45;97918.38;;;4.14;83.25
19208;BME280;9737;59.466;18.036;2023-01-28T12:18:26;97891.66;;;4.09;82.73
19208;BME280;9737;59.466;18.036;2023-01-28T12:21:03;97924.22;;;4.18;82.70
19208;BME280;9737;59.466;18.036;2023-01-28T12:23:50;97871.94;;;4.03;83.18
19208;BME280;9737;59.466;18.036;2023-01-28T12:26:24;97827.38;;;3.92;82.98
19208;BME280;9737;59.466;18.036;2023-01-28T12:29:07;97859.06;;;4.00;83.15
19208;BME280;9737;59.466;18.036;2023-01-28T12:31:59;97851.31;;;3.99;82.92
19208;BME280;9737;59.466;18.036;2023-01-28T12:34:44;97817.13;;;3.89;82.63
19208;BME280;9737;59.466;18.036;2023-01-28T12:37:21;97845.22;;;3.98;82.84
19208;BME280;9737;59.466;18.036;2023-01-28T12:40:06;97798.16;;;3.86;83.20
19208;BME280;9737;59.466;18.036;2023-01-28T12:42:44;97811.16;;;3.87;82.94
19208;BME280;9737;59.466;18.036;2023-01-28T12:45:17;97813.66;;;3.89;82.29
19208;BME280;9737;59.466;18.036;2023-01-28T12:47:50;97767.97;;;3.80;82.60
19208;BME280;9737;59.466;18.036;2023-01-28T12:50:23;97764.66;;;3.78;82.32
19208;BME280;9737;59.466;18.036;2023-01-28T12:52:56;97721.72;;;3.68;82.58
19208;BME280;9737;59.466;18.036;2023-01-28T12:55:36;97727.81;;;3.68;82.55
19208;BME280;9737;59.466;18.036;2023-01-28T12:58:11;97702.91;;;3.63;82.27
19208;BME280;9737;59.466;18.036;2023-01-28T13:00:45;97732.38;;;3.66;82.65
19208;BME280;9737;59.466;18.036;2023-01-28T13:03:19;97751.88;;;3.73;82.67
19208;BME280;9737;59.466;18.036;2023-01-28T13:05:50;97741.78;;;3.69;82.74
19208;BME280;9737;59.466;18.036;2023-01-28T13:08:22;97735.28;;;3.73;82.56
19208;BME280;9737;59.466;18.036;2023-01-28T13:10:51;97702.06;;;3.62;82.76
19208;BME280;9737;59.466;18.036;2023-01-28T13:13:24;97742.34;;;3.72;82.35
19208;BME280;9737;59.466;18.036;2023-01-28T13:15:54;97711.50;;;3.65;83.09
19208;BME280;9737;59.466;18.036;2023-01-28T13:18:36;97668.59;;;3.55;82.83
19208;BME280;9737;59.466;18.036;2023-01-28T13:21:14;97683.13;;;3.59;82.46
19208;BME280;9737;59.466;18.036;2023-01-28T13:23:46;97690.19;;;3.58;82.99
19208;BME280;9737;59.466;18.036;2023-01-28T13:26:28;97632.59;;;3.36;82.68
19208;BME280;9737;59.466;18.036;2023-01-28T13:29:18;97626.66;;;3.43;82.76
19208;BME280;9737;59.466;18.036;2023-01-28T13:31:47;97602.03;;;3.35;82.48
19208;BME280;9737;59.466;18.036;2023-01-28T13:34:34;97585.72;;;3.31;82.60
19208;BME280;9737;59.466;18.036;2023-01-28T13:37:12;97581.44;;;3.30;82.50